Flight Track Log - Related Links

Times and Time Zones

All times are in EST time to prevent confusion due to time zone crossing. See the SWA3025 flight status page for this flight to view local times or setup timezone preferences in your user account.


Time Position Orientation Groundspeed Altitude Reporting Facility
EST Latitude Longitude Course Direction KTS MPH feet Rate Location/Type
Sat 01:27:21 PM 39.8167 -104.6667 180° South 161 185 7,300  Level Denver TRACON
Sat 01:28:27 PM 39.7500 -104.6667 180° South 241 277 9,500 2,158 Climbing Denver TRACON
Sat 01:29:40 PM 39.6519 -104.7206 203° Southwest 309 356 12,300 2,711 Climbing Denver Center
Sat 01:30:42 PM 39.5631 -104.7817 208° Southwest 357 411 15,600 3,242 Climbing Denver Center
Sat 01:31:44 PM 39.4628 -104.8481 207° Southwest 375 432 19,000 3,097 Climbing Denver Center
Sat 01:32:46 PM 39.3697 -104.9100 207° Southwest 376 433 22,000 2,710 Climbing Denver Center
Sat 01:33:48 PM 39.2753 -104.9728 207° Southwest 384 442 24,600 2,274 Climbing Denver Center
Sat 01:34:50 PM 39.1758 -105.0386 207° Southwest 394 453 26,700 2,032 Climbing Denver Center
Sat 01:35:52 PM 39.0542 -105.1122 205° Southwest 412 474 28,800 1,597 Climbing Denver Center
Sat 01:36:54 PM 38.9464 -105.1772 205° Southwest 423 487 30,000 581 Climbing Denver Center
Sat 01:37:56 PM 38.8389 -105.2386 204° Southwest 421 484 30,000 1,065 Level Denver Center
Sat 01:38:58 PM 38.7333 -105.3003 205° Southwest 416 479 32,200 1,452 Climbing Denver Center
Sat 01:40:00 PM 38.6308 -105.3594 204° Southwest 405 466 33,000 871 Climbing Denver Center
Sat 01:41:02 PM 38.5267 -105.4133 202° Southwest 403 464 34,000 484 Climbing Denver Center
Sat 01:42:04 PM 38.4164 -105.4481 194° South 400 460 34,000 339 Level Denver Center
Sat 01:43:06 PM 38.2931 -105.4933 196° South 405 466 34,700 768 Climbing Denver Center
Sat 01:44:09 PM 38.1903 -105.5281 195° South 402 463 35,600 720 Climbing Denver Center
Sat 01:45:11 PM 38.0947 -105.6219 218° Southwest 399 459 36,200 1,161 Climbing Denver Center
Sat 01:46:13 PM 38.0208 -105.7161 225° Southwest 392 451 38,000 871 Climbing Denver Center
Sat 01:47:15 PM 37.9400 -105.8225 226° Southwest 378 435 38,000  Level Denver Center
Sat 01:48:17 PM 37.8689 -105.9147 226° Southwest 381 438 38,000  Level Denver Center
Sat 01:49:19 PM 37.7861 -106.0197 225° Southwest 378 435 38,000  Level Denver Center
Sat 01:50:21 PM 37.7161 -106.1083 225° Southwest 374 430 38,000  Level Denver Center
Sat 01:51:23 PM 37.6372 -106.2111 226° Southwest 373 429 38,000  Level Denver Center
Sat 01:52:25 PM 37.5675 -106.3025 226° Southwest 376 433 38,000  Level Denver Center
Sat 01:53:27 PM 37.4850 -106.4061 225° Southwest 375 432 38,000  Level Denver Center
Sat 01:54:29 PM 37.4147 -106.4950 225° Southwest 374 430 38,000  Level Denver Center
Sat 01:55:31 PM 37.3331 -106.5992 225° Southwest 375 432 38,000  Level Denver Center
Sat 01:56:33 PM 37.2631 -106.6892 226° Southwest 375 432 38,000  Level Denver Center
Sat 01:57:36 PM 37.1800 -106.7936 225° Southwest 377 434 38,000  Level Denver Center
Sat 01:58:38 PM 37.1097 -106.8822 225° Southwest 377 434 38,000  Level Denver Center
Sat 01:59:40 PM 37.0406 -106.9717 226° Southwest 373 429 38,000  Level Denver Center
Sat 02:00:42 PM 36.9586 -107.0733 225° Southwest 372 428 38,000  Level Denver Center
Sat 02:01:44 PM 36.8886 -107.1603 225° Southwest 371 427 38,000  Level Denver Center
Sat 02:02:46 PM 36.8064 -107.2619 225° Southwest 372 428 38,000  Level Denver Center
Sat 02:03:48 PM 36.7364 -107.3494 225° Southwest 372 428 38,000  Level Denver Center
Sat 02:04:50 PM 36.6544 -107.4511 225° Southwest 372 428 38,000  Level Denver Center
Sat 02:05:52 PM 36.5831 -107.5389 225° Southwest 375 432 38,000  Level Denver Center
Sat 02:06:54 PM 36.5008 -107.6406 225° Southwest 374 430 38,000  Level Denver Center
Sat 02:07:56 PM 36.4294 -107.7281 225° Southwest 375 432 38,000  Level Denver Center
Sat 02:09:01 PM 36.3456 -107.8300 224° Southwest 375 432 38,000  Level Albuquerque Center
Sat 02:10:00 PM 36.2739 -107.9156 224° Southwest 375 432 38,000  Level Denver Center
Sat 02:11:02 PM 36.1908 -108.0183 225° Southwest 376 433 38,000  Level Denver Center
Sat 02:12:04 PM 36.1186 -108.1050 224° Southwest 376 433 38,000  Level Denver Center
Sat 02:13:09 PM 36.0361 -108.2122 226° Southwest 380 437 38,000  Level Albuquerque Center
Sat 02:15:11 PM 35.8919 -108.3942 226° Southwest 385 443 38,000 -290 Level Denver Center
Sat 02:16:15 PM 35.8108 -108.4986 226° Southwest 380 437 37,100 -952 Descending Albuquerque Center
Sat 02:17:17 PM 35.7306 -108.5994 226° Southwest 371 427 36,000 -532 Descending Albuquerque Center
Sat 02:18:19 PM 35.6594 -108.6883 225° Southwest 374 430 36,000  Level Albuquerque Center
Sat 02:19:21 PM 35.5881 -108.7778 226° Southwest 378 435 36,000 -532 Level Albuquerque Center
Sat 02:20:23 PM 35.5039 -108.8833 226° Southwest 383 441 34,900 -968 Descending Albuquerque Center
Sat 02:21:25 PM 35.4300 -108.9747 225° Southwest 389 448 34,000 -432 Descending Albuquerque Center
Sat 02:22:28 PM 35.3439 -109.0808 225° Southwest 391 450 34,000  Level Albuquerque Center
Sat 02:23:30 PM 35.2717 -109.1717 226° Southwest 390 449 34,000  Level Albuquerque Center
Sat 02:24:32 PM 35.1869 -109.2758 225° Southwest 387 445 34,000  Level Albuquerque Center
Sat 02:25:34 PM 35.1144 -109.3653 225° Southwest 387 445 34,000  Level Albuquerque Center
Sat 02:26:36 PM 35.0292 -109.4686 225° Southwest 387 445 34,000  Level Albuquerque Center
Sat 02:27:38 PM 34.9561 -109.5539 224° Southwest 383 441 34,000  Level Albuquerque Center
Sat 02:28:40 PM 34.8836 -109.6403 224° Southwest 381 438 34,000  Level Albuquerque Center
Sat 02:29:42 PM 34.7997 -109.7431 225° Southwest 381 438 34,000  Level Albuquerque Center
Sat 02:30:44 PM 34.7283 -109.8317 226° Southwest 382 440 34,000  Level Albuquerque Center
Sat 02:31:46 PM 34.6706 -109.9583 241° Southwest 387 445 34,000  Level Albuquerque Center
Sat 02:32:48 PM 34.6289 -110.0700 246° West 381 438 34,000  Level Albuquerque Center
Sat 02:33:50 PM 34.5833 -110.2100 248° West 393 452 34,000  Level Albuquerque Center
Sat 02:34:52 PM 34.5358 -110.3156 241° Southwest 380 437 34,000 -488 Level Albuquerque Center
Sat 02:35:53 PM 34.4906 -110.4464 247° West 392 451 33,000 -488 Descending Albuquerque Center
Sat 02:36:55 PM 34.4486 -110.5661 247° West 391 450 33,000 -1,258 Level Albuquerque Center
Sat 02:37:57 PM 34.4050 -110.6817 245° Southwest 384 442 30,400 -2,371 Descending Albuquerque Center
Sat 02:38:59 PM 34.3547 -110.7900 241° Southwest 376 433 28,100 -1,161 Descending Albuquerque Center
Sat 02:40:01 PM 34.2892 -110.8825 229° Southwest 367 422 28,000 -1,258 Descending Albuquerque Center
Sat 02:41:03 PM 34.2081 -110.9853 226° Southwest 353 406 25,500 -2,274 Descending Albuquerque Center
Sat 02:42:05 PM 34.1431 -111.0689 227° Southwest 345 397 23,300 -2,081 Descending Albuquerque Center
Sat 02:43:07 PM 34.0789 -111.1522 227° Southwest 342 394 21,200 -2,032 Descending Albuquerque Center
Sat 02:44:09 PM 34.0158 -111.2322 226° Southwest 338 389 19,100 -1,984 Descending Albuquerque Center
Sat 02:45:11 PM 33.9575 -111.3061 226° Southwest 319 367 17,100 -1,500 Descending Albuquerque Center
Sat 02:46:13 PM 33.8981 -111.3811 226° Southwest 310 357 16,000 -1,065 Descending Albuquerque Center
Sat 02:47:15 PM 33.8544 -111.4519 233° Southwest 267 307 14,900 -1,258 Descending Albuquerque Center
Sat 02:48:17 PM 33.8150 -111.5303 239° Southwest 271 312 13,400 -1,597 Descending Albuquerque Center
Sat 02:49:19 PM 33.7661 -111.6219 237° Southwest 270 311 11,600 -1,597 Descending Albuquerque Center
Sat 02:50:21 PM 33.7261 -111.6969 237° Southwest 265 305 10,100 -774 Descending Albuquerque Center
Sat 02:51:23 PM 33.6867 -111.7697 237° Southwest 261 300 10,000 -244 Descending Albuquerque Center
Sat 02:52:24 PM 33.6475 -111.8411 237° Southwest 257 296 9,600 -439 Descending Albuquerque Center
Sat 02:53:26 PM 33.6114 -111.9078 237° Southwest 242 278 9,100 -387 Descending Albuquerque Center
Sat 02:54:28 PM 33.5767 -111.9725 237° Southwest 232 267 8,800 -774 Descending Albuquerque Center
Sat 02:55:30 PM 33.5425 -112.0386 238° Southwest 226 260 7,500 -1,210 Descending Albuquerque Center
Sat 02:56:32 PM 33.5253 -112.1219 256° West 228 262 6,300 -1,403 Descending Albuquerque Center
Sat 02:57:34 PM 33.5169 -112.1944 262° West 228 262 4,600 -1,306 Descending Albuquerque Center
Sat 02:58:36 PM 33.4681 -112.1869 173° South 188 216 3,600 -823 Descending Albuquerque Center
Sat 02:59:38 PM 33.4425 -112.1294 118° Southeast 178 205 2,900 -677 Descending Albuquerque Center
Sat 03:00:40 PM 33.4408 -112.0881 93° East 145 167 2,200 -726 Descending Albuquerque Center
Sat 03:01:42 PM 33.4403 -112.0375 91° East 136 157 1,400 -532 Descending Albuquerque Center
Sat 03:02:44 PM 33.4397 -111.9897 91° East 136 157 1,100 -290 Descending Albuquerque Center

Login

Don't have an account? Register now (free) for customized features, flight alerts, and more!